createdAt,value
2023-04-23T00:00:25.236Z,18.45
2023-04-23T00:03:31.619Z,17.00
2023-04-23T00:06:37.436Z,17.55
2023-04-23T00:09:43.760Z,17.92
2023-04-23T00:12:49.499Z,17.17
2023-04-23T00:15:57.789Z,16.92
2023-04-23T00:22:08.597Z,16.42
2023-04-23T00:25:13.993Z,15.85
2023-04-23T00:28:21.946Z,16.00
2023-04-23T00:31:30.425Z,17.02
2023-04-23T00:34:36.102Z,17.10
2023-04-23T00:37:41.965Z,15.55
2023-04-23T00:40:47.764Z,16.60
2023-04-23T00:43:53.761Z,15.73
2023-04-23T00:47:02.485Z,16.25
2023-04-23T00:50:08.667Z,15.32
2023-04-23T00:53:14.597Z,17.10
2023-04-23T00:56:20.891Z,16.00
2023-04-23T00:59:26.351Z,16.45
2023-04-23T01:02:35.705Z,16.63
2023-04-23T01:05:41.423Z,14.90
2023-04-23T01:08:47.140Z,16.92
2023-04-23T01:11:53.729Z,16.23
2023-04-23T01:14:59.828Z,15.50
2023-04-23T01:18:08.314Z,15.32
2023-04-23T01:21:14.468Z,16.80
2023-04-23T01:24:22.685Z,15.52
2023-04-23T01:27:29.240Z,15.07
2023-04-23T01:30:34.904Z,15.35
2023-04-23T01:33:40.415Z,14.73
2023-04-23T01:36:46.905Z,16.42
2023-04-23T01:39:55.146Z,16.33
2023-04-23T01:43:00.467Z,16.40
2023-04-23T01:46:06.257Z,16.20
2023-04-23T01:49:12.190Z,16.95
2023-04-23T01:52:17.998Z,17.50
2023-04-23T01:55:26.763Z,17.27
2023-04-23T02:01:47.460Z,16.73
2023-04-23T02:04:53.541Z,17.00
2023-04-23T02:07:59.588Z,17.70
2023-04-23T02:11:08.538Z,16.98
2023-04-23T02:14:14.316Z,16.77
2023-04-23T02:17:20.304Z,17.15
2023-04-23T02:20:25.926Z,17.13
2023-04-23T02:23:31.589Z,18.02
2023-04-23T02:26:39.649Z,18.17
2023-04-23T02:29:45.334Z,16.63
2023-04-23T02:32:50.682Z,17.40
2023-04-23T02:35:56.209Z,16.15
2023-04-23T02:39:01.658Z,20.02
2023-04-23T02:42:10.204Z,19.15
2023-04-23T02:45:15.454Z,19.77
2023-04-23T02:48:22.732Z,17.15
2023-04-23T02:51:28.120Z,16.23
2023-04-23T02:54:33.901Z,17.60
2023-04-23T02:57:42.230Z,16.73
2023-04-23T03:00:47.772Z,16.23
2023-04-23T03:03:53.883Z,16.98
2023-04-23T03:06:59.777Z,16.75
2023-04-23T03:10:05.935Z,17.25
2023-04-23T03:13:14.125Z,17.23
2023-04-23T03:16:19.540Z,18.15
2023-04-23T03:19:25.569Z,18.38
2023-04-23T03:22:30.657Z,17.70
2023-04-23T03:25:36.762Z,16.83
2023-04-23T03:28:44.644Z,15.60
2023-04-23T03:31:50.296Z,17.75
2023-04-23T03:34:55.756Z,17.45
2023-04-23T03:38:01.568Z,17.85
2023-04-23T03:41:08.179Z,15.73
2023-04-23T03:44:16.415Z,17.33
2023-04-23T03:47:23.883Z,16.27
2023-04-23T03:50:30.189Z,16.08
2023-04-23T03:53:47.752Z,17.20
2023-04-23T03:57:12.489Z,15.05
2023-04-23T04:00:32.901Z,14.57
2023-04-23T04:03:38.740Z,15.73
2023-04-23T04:06:44.324Z,14.38
2023-04-23T04:09:50.152Z,14.07
2023-04-23T04:12:55.668Z,14.02
2023-04-23T04:16:04.587Z,13.90
2023-04-23T04:22:15.489Z,13.43
2023-04-23T04:25:22.543Z,13.48
2023-04-23T04:28:27.828Z,12.70
2023-04-23T04:31:36.141Z,12.75
2023-04-23T04:37:47.547Z,12.48
2023-04-23T04:40:53.386Z,12.55
2023-04-23T04:43:59.112Z,12.77
2023-04-23T04:47:07.522Z,11.60
2023-04-23T04:50:13.305Z,11.25
2023-04-23T04:53:18.860Z,11.50
2023-04-23T04:56:24.611Z,12.80
2023-04-23T04:59:29.940Z,12.13
2023-04-23T05:02:38.404Z,11.50
2023-04-23T05:05:43.822Z,11.93
2023-04-23T05:08:50.632Z,11.18
2023-04-23T05:11:56.156Z,10.27
2023-04-23T05:15:01.822Z,9.82
2023-04-23T05:18:12.653Z,9.98
2023-04-23T05:21:18.791Z,9.20
2023-04-23T05:24:24.012Z,10.27
2023-04-23T05:27:29.629Z,10.23
2023-04-23T05:30:34.836Z,8.77
2023-04-23T05:33:49.988Z,11.05
2023-04-23T05:36:56.450Z,11.15
2023-04-23T05:40:03.143Z,11.07
2023-04-23T05:43:11.772Z,11.27
2023-04-23T05:46:17.465Z,9.88
2023-04-23T05:49:27.445Z,10.32
2023-04-23T05:52:36.263Z,10.73
2023-04-23T05:55:43.345Z,10.75
2023-04-23T05:58:49.001Z,9.45
2023-04-23T06:01:54.443Z,9.00
2023-04-23T06:05:02.816Z,9.13
2023-04-23T06:08:09.308Z,10.20
2023-04-23T06:11:14.760Z,8.27
2023-04-23T06:14:20.255Z,9.82
2023-04-23T06:17:26.040Z,9.15
2023-04-23T06:20:34.132Z,8.85
2023-04-23T06:23:39.740Z,10.40
2023-04-23T06:26:45.262Z,8.27
2023-04-23T06:29:54.952Z,8.27
2023-04-23T06:33:01.293Z,10.13
2023-04-23T06:36:11.508Z,8.32
2023-04-23T06:39:16.849Z,8.90
2023-04-23T06:42:22.472Z,9.63
2023-04-23T06:48:46.839Z,9.07
2023-04-23T06:51:56.967Z,8.40
2023-04-23T06:55:03.364Z,7.57
2023-04-23T06:58:09.189Z,7.80
2023-04-23T07:01:14.618Z,7.35
2023-04-23T07:04:20.454Z,8.30
2023-04-23T07:07:28.591Z,8.45
2023-04-23T07:10:33.882Z,7.97
2023-04-23T07:13:39.287Z,8.40
2023-04-23T07:16:44.964Z,8.60
2023-04-23T07:19:51.197Z,9.20
2023-04-23T07:22:59.176Z,8.63
2023-04-23T07:26:04.848Z,8.68
2023-04-23T07:29:11.019Z,8.73
2023-04-23T07:32:16.460Z,8.38
2023-04-23T07:35:22.150Z,7.93
2023-04-23T07:38:30.119Z,8.35
2023-04-23T07:41:35.749Z,7.95
2023-04-23T07:44:41.305Z,7.70
2023-04-23T07:47:46.922Z,5.80
2023-04-23T07:50:52.136Z,6.88
2023-04-23T07:53:59.996Z,7.78
2023-04-23T07:57:05.300Z,7.57
2023-04-23T08:00:12.526Z,5.35
2023-04-23T08:03:18.845Z,6.13
2023-04-23T08:06:24.703Z,4.85
2023-04-23T08:09:32.900Z,5.10
2023-04-23T08:12:38.660Z,3.50
2023-04-23T08:15:44.175Z,2.53
2023-04-23T08:19:03.664Z,3.50
2023-04-23T08:22:11.044Z,4.28
2023-04-23T08:25:18.968Z,3.90
2023-04-23T08:28:25.644Z,2.65
2023-04-23T08:31:30.966Z,1.48
2023-04-23T08:34:36.543Z,1.50
2023-04-23T08:37:42.083Z,1.40
2023-04-23T08:40:52.434Z,1.20
2023-04-23T08:44:03.868Z,1.00
2023-04-23T08:47:11.065Z,1.77
2023-04-23T08:50:18.149Z,1.33
2023-04-23T08:53:25.488Z,1.45
2023-04-23T08:56:33.729Z,1.80
2023-04-23T09:02:46.485Z,1.63
2023-04-23T09:05:53.495Z,1.50
2023-04-23T09:08:59.393Z,1.73
2023-04-23T09:12:08.013Z,1.40
2023-04-23T09:15:14.208Z,1.90
2023-04-23T09:18:23.158Z,1.80
2023-04-23T09:21:28.668Z,1.73
2023-04-23T09:24:33.798Z,2.22
2023-04-23T09:27:42.362Z,1.75
2023-04-23T09:30:48.086Z,1.95
2023-04-23T09:33:54.881Z,1.60
2023-04-23T09:37:00.337Z,2.30
2023-04-23T09:40:09.272Z,1.80
2023-04-23T09:43:17.312Z,2.10
2023-04-23T09:46:23.090Z,2.13
2023-04-23T09:49:28.430Z,1.73
2023-04-23T09:52:34.829Z,2.20
2023-04-23T09:55:42.064Z,2.05
2023-04-23T09:58:51.689Z,1.65
2023-04-23T10:01:56.968Z,1.70
2023-04-23T10:05:18.837Z,1.90
2023-04-23T10:08:27.432Z,1.75
2023-04-23T10:11:33.309Z,1.70
2023-04-23T10:14:41.950Z,2.35
2023-04-23T10:17:48.919Z,2.08
2023-04-23T10:20:55.613Z,1.95
2023-04-23T10:24:02.199Z,2.22
2023-04-23T10:27:17.703Z,1.52
2023-04-23T10:30:34.869Z,1.98
2023-04-23T10:36:54.974Z,1.90
2023-04-23T10:40:04.702Z,1.95
2023-04-23T10:43:10.458Z,2.13
2023-04-23T10:46:34.437Z,1.83
2023-04-23T10:49:42.314Z,1.90
2023-04-23T10:52:51.849Z,2.43
2023-04-23T10:56:08.328Z,1.85
2023-04-23T10:59:21.638Z,1.98
2023-04-23T11:02:46.554Z,1.98
2023-04-23T11:05:52.421Z,2.03
2023-04-23T11:08:59.605Z,1.83
2023-04-23T11:12:06.136Z,2.00
2023-04-23T11:15:15.161Z,1.80
2023-04-23T11:18:23.186Z,2.13
2023-04-23T11:21:43.490Z,2.08
2023-04-23T11:24:50.942Z,2.20
2023-04-23T11:27:58.654Z,2.42
2023-04-23T11:31:03.937Z,2.05
2023-04-23T11:34:12.664Z,2.00
2023-04-23T11:37:18.513Z,2.40
2023-04-23T11:40:24.906Z,2.40
2023-04-23T11:43:30.702Z,2.35
2023-04-23T11:46:36.182Z,2.28
2023-04-23T11:49:44.871Z,2.25
2023-04-23T11:52:51.040Z,2.75
2023-04-23T11:55:57.102Z,2.80
2023-04-23T11:59:04.254Z,2.50
2023-04-23T12:02:09.861Z,2.65
2023-04-23T12:05:18.277Z,2.42
2023-04-23T12:08:24.304Z,2.80
2023-04-23T12:11:29.867Z,3.28
2023-04-23T12:14:35.104Z,5.53
2023-04-23T12:17:40.898Z,2.75
2023-04-23T12:20:49.063Z,2.70
2023-04-23T12:23:54.952Z,2.40
2023-04-23T12:27:03.086Z,2.30
2023-04-23T12:30:09.404Z,2.88
2023-04-23T12:33:14.894Z,2.60
2023-04-23T12:36:22.990Z,5.90
2023-04-23T12:39:29.690Z,3.30
2023-04-23T12:42:35.262Z,2.80
2023-04-23T12:45:41.137Z,2.80
2023-04-23T12:48:46.495Z,2.58
2023-04-23T12:51:57.822Z,2.60
2023-04-23T12:55:05.414Z,2.45
2023-04-23T13:01:16.161Z,2.67
2023-04-23T13:04:21.573Z,2.40
2023-04-23T13:07:29.557Z,2.65
2023-04-23T13:10:34.832Z,2.50
2023-04-23T13:13:40.509Z,2.70
2023-04-23T13:16:45.670Z,2.92
2023-04-23T13:19:51.279Z,2.78
2023-04-23T13:22:59.471Z,2.75
2023-04-23T13:26:07.216Z,2.38
2023-04-23T13:29:12.959Z,3.05
2023-04-23T13:32:20.011Z,2.78
2023-04-23T13:35:27.358Z,2.67
2023-04-23T13:38:35.926Z,2.75
2023-04-23T13:41:41.290Z,2.75
2023-04-23T13:44:47.054Z,2.50
2023-04-23T13:47:52.397Z,2.53
2023-04-23T13:50:57.764Z,2.60
2023-04-23T13:54:05.777Z,2.78
2023-04-23T13:57:11.230Z,3.22
2023-04-23T14:00:17.316Z,2.83
2023-04-23T14:03:23.462Z,3.00
2023-04-23T14:06:28.723Z,2.70
2023-04-23T14:09:37.803Z,2.63
2023-04-23T14:12:42.877Z,3.30
2023-04-23T14:15:48.399Z,3.28
2023-04-23T14:18:53.817Z,2.20
2023-04-23T14:21:59.215Z,2.60
2023-04-23T14:25:11.503Z,2.50
2023-04-23T14:28:26.955Z,2.85
2023-04-23T14:31:34.247Z,2.83
2023-04-23T14:34:40.053Z,2.70
2023-04-23T14:37:46.114Z,2.78
2023-04-23T14:40:54.002Z,2.92
2023-04-23T14:43:59.539Z,2.42
2023-04-23T14:47:05.189Z,2.40
2023-04-23T14:50:11.528Z,2.90
2023-04-23T14:53:17.161Z,2.40
2023-04-23T14:56:25.023Z,2.20
2023-04-23T14:59:30.665Z,2.83
2023-04-23T15:02:36.174Z,3.17
2023-04-23T15:05:42.088Z,2.75
2023-04-23T15:08:47.490Z,2.30
2023-04-23T15:11:55.525Z,2.38
2023-04-23T15:15:01.354Z,2.15
2023-04-23T15:18:09.190Z,2.17
2023-04-23T15:21:14.782Z,2.63
2023-04-23T15:24:20.246Z,2.45
2023-04-23T15:27:28.436Z,2.40
2023-04-23T15:30:33.848Z,2.70
2023-04-23T15:33:39.441Z,1.98
2023-04-23T15:36:44.644Z,2.22
2023-04-23T15:39:51.285Z,2.20
2023-04-23T15:42:59.079Z,2.40
2023-04-23T15:46:04.407Z,2.30
2023-04-23T15:49:09.615Z,2.60
2023-04-23T15:52:15.219Z,2.70
2023-04-23T15:55:20.490Z,2.25
2023-04-23T15:58:28.476Z,3.30
2023-04-23T16:04:40.066Z,2.53
2023-04-23T16:07:45.329Z,2.50
2023-04-23T16:10:50.795Z,2.58
2023-04-23T16:13:58.908Z,2.20
2023-04-23T16:17:04.722Z,2.50
2023-04-23T16:20:11.221Z,2.85
2023-04-23T16:23:16.941Z,3.00
2023-04-23T16:26:22.264Z,2.88
2023-04-23T16:29:30.648Z,3.75
2023-04-23T16:35:41.666Z,3.20
2023-04-23T16:38:49.667Z,2.80
2023-04-23T16:41:54.976Z,3.30
2023-04-23T16:45:03.599Z,3.28
2023-04-23T16:48:13.251Z,3.10
2023-04-23T16:51:19.085Z,3.17
2023-04-23T16:54:24.389Z,4.50
2023-04-23T16:57:30.630Z,4.07
2023-04-23T17:00:38.583Z,3.55
2023-04-23T17:03:44.257Z,4.03
2023-04-23T17:06:49.756Z,4.10
2023-04-23T17:09:55.571Z,4.80
2023-04-23T17:13:01.196Z,5.03
2023-04-23T17:16:09.151Z,4.18
2023-04-23T17:22:20.501Z,4.65
2023-04-23T17:25:25.865Z,4.15
2023-04-23T17:28:31.305Z,4.57
2023-04-23T17:31:39.832Z,4.53
2023-04-23T17:34:56.379Z,4.53
2023-04-23T17:38:09.021Z,4.60
2023-04-23T17:41:14.208Z,5.35
2023-04-23T17:44:19.702Z,5.00
2023-04-23T17:47:28.103Z,5.13
2023-04-23T17:50:33.680Z,5.75
2023-04-23T17:53:39.492Z,4.97
2023-04-23T17:56:44.774Z,5.25
2023-04-23T17:59:49.908Z,5.93
2023-04-23T18:02:58.106Z,5.53
2023-04-23T18:06:04.094Z,5.78
2023-04-23T18:09:09.879Z,5.65
2023-04-23T18:12:15.284Z,5.75
2023-04-23T18:15:20.560Z,6.05
2023-04-23T18:18:28.438Z,5.47
2023-04-23T18:21:34.324Z,4.95
2023-04-23T18:24:40.022Z,6.10
2023-04-23T18:27:46.013Z,5.50
2023-04-23T18:30:51.723Z,5.78
2023-04-23T18:34:02.432Z,5.88
2023-04-23T18:37:11.490Z,5.90
2023-04-23T18:40:16.890Z,5.78
2023-04-23T18:43:22.353Z,6.20
2023-04-23T18:46:29.753Z,6.13
2023-04-23T18:49:48.655Z,5.93
2023-04-23T18:52:53.985Z,6.30
2023-04-23T18:55:59.262Z,5.75
2023-04-23T18:59:04.861Z,5.53
2023-04-23T19:02:10.263Z,5.72
2023-04-23T19:05:19.088Z,6.13
2023-04-23T19:08:29.027Z,6.38
2023-04-23T19:11:35.813Z,6.20
2023-04-23T19:14:41.042Z,6.90
2023-04-23T19:17:46.807Z,7.53
2023-04-23T19:20:54.830Z,6.20
2023-04-23T19:24:00.475Z,7.35
2023-04-23T19:27:07.084Z,6.13
2023-04-23T19:30:13.263Z,5.90
2023-04-23T19:33:18.976Z,7.15
2023-04-23T19:36:26.736Z,7.35
2023-04-23T19:39:32.414Z,8.13
2023-04-23T19:42:37.674Z,6.80
2023-04-23T19:45:43.631Z,7.25
2023-04-23T19:48:48.785Z,7.20
2023-04-23T19:51:57.740Z,7.10
2023-04-23T19:55:03.648Z,6.97
2023-04-23T19:58:10.430Z,6.80
2023-04-23T20:01:16.209Z,7.95
2023-04-23T20:04:22.189Z,6.47
2023-04-23T20:07:30.281Z,7.60
2023-04-23T20:10:35.865Z,7.90
2023-04-23T20:13:41.224Z,8.80
2023-04-23T20:16:47.879Z,9.07
2023-04-23T20:19:55.843Z,8.70
2023-04-23T20:23:04.016Z,8.65
2023-04-23T20:26:09.749Z,8.95
2023-04-23T20:29:15.275Z,8.60
2023-04-23T20:32:20.678Z,7.32
2023-04-23T20:35:26.678Z,9.00
2023-04-23T20:38:34.613Z,8.27
2023-04-23T20:41:40.686Z,8.35
2023-04-23T20:44:47.355Z,8.20
2023-04-23T20:47:52.721Z,9.43
2023-04-23T20:50:58.316Z,8.50
2023-04-23T20:54:07.002Z,8.60
2023-04-23T21:00:20.455Z,8.00
2023-04-23T21:03:26.315Z,8.73
2023-04-23T21:06:33.751Z,7.93
2023-04-23T21:09:41.971Z,8.57
2023-04-23T21:15:52.921Z,8.93
2023-04-23T21:18:58.578Z,8.95
2023-04-23T21:22:03.989Z,8.68
2023-04-23T21:25:13.125Z,8.73
2023-04-23T21:28:18.866Z,8.63
2023-04-23T21:31:28.555Z,9.85
2023-04-23T21:34:33.890Z,8.88
2023-04-23T21:37:39.289Z,8.80
2023-04-23T21:40:47.744Z,9.02
2023-04-23T21:43:53.077Z,9.75
2023-04-23T21:46:58.329Z,9.15
2023-04-23T21:50:03.540Z,9.45
2023-04-23T21:53:09.297Z,8.90
2023-04-23T21:56:17.341Z,9.57
2023-04-23T21:59:23.924Z,8.55
2023-04-23T22:02:29.771Z,9.15
2023-04-23T22:05:35.713Z,9.40
2023-04-23T22:08:41.158Z,8.85
2023-04-23T22:12:01.177Z,9.15
2023-04-23T22:15:08.200Z,8.50
2023-04-23T22:18:13.656Z,9.13
2023-04-23T22:21:18.849Z,8.63
2023-04-23T22:24:24.146Z,9.65
2023-04-23T22:27:34.193Z,9.32
2023-04-23T22:30:40.540Z,8.77
2023-04-23T22:33:45.876Z,9.25
2023-04-23T22:36:51.403Z,8.65
2023-04-23T22:39:59.252Z,9.77
2023-04-23T22:43:07.405Z,8.07
2023-04-23T22:46:12.870Z,8.73
2023-04-23T22:49:18.870Z,8.50
2023-04-23T22:52:24.286Z,9.07
2023-04-23T22:55:29.973Z,9.05
2023-04-23T22:58:39.399Z,8.73
2023-04-23T23:01:45.411Z,8.40
2023-04-23T23:04:51.230Z,8.10
2023-04-23T23:07:57.065Z,8.95
2023-04-23T23:11:02.889Z,9.25
2023-04-23T23:14:12.099Z,8.30
2023-04-23T23:17:17.951Z,8.15
2023-04-23T23:20:23.419Z,8.43
2023-04-23T23:23:29.559Z,8.68
2023-04-23T23:26:35.445Z,11.73
2023-04-23T23:29:43.685Z,8.23
2023-04-23T23:32:49.511Z,8.48
2023-04-23T23:35:54.747Z,8.57
2023-04-23T23:39:00.147Z,7.93
2023-04-23T23:42:05.493Z,8.88
2023-04-23T23:45:14.353Z,8.18
2023-04-23T23:48:20.091Z,7.93
2023-04-23T23:51:25.482Z,8.35
2023-04-23T23:54:31.088Z,8.68
2023-04-23T23:57:36.798Z,8.43
